createdAt,value
2022-11-14T00:01:47.684Z,6.95
2022-11-14T00:04:14.867Z,6.98
2022-11-14T00:06:41.954Z,6.99
2022-11-14T00:09:29.830Z,6.92
2022-11-14T00:11:57.055Z,7.01
2022-11-14T00:14:24.855Z,7.04
2022-11-14T00:16:51.926Z,6.97
2022-11-14T00:19:19.074Z,6.92
2022-11-14T00:21:46.473Z,7.00
2022-11-14T00:24:13.867Z,7.00
2022-11-14T00:26:41.166Z,6.90
2022-11-14T00:29:12.611Z,6.98
2022-11-14T00:31:48.203Z,6.96
2022-11-14T00:34:15.546Z,6.98
2022-11-14T00:36:42.609Z,6.95
2022-11-14T00:39:17.638Z,6.90
2022-11-14T00:41:47.137Z,7.03
2022-11-14T00:44:19.430Z,7.02
2022-11-14T00:46:50.045Z,7.09
2022-11-14T00:49:20.166Z,6.96
2022-11-14T00:51:57.872Z,6.97
2022-11-14T00:54:28.346Z,6.89
2022-11-14T00:56:57.994Z,6.93
2022-11-14T00:59:25.328Z,6.84
2022-11-14T01:01:58.289Z,6.83
2022-11-14T01:04:28.371Z,6.85
2022-11-14T01:07:07.846Z,6.87
2022-11-14T01:09:34.886Z,6.90
2022-11-14T01:12:07.890Z,6.81
2022-11-14T01:14:42.888Z,6.77
2022-11-14T01:17:10.214Z,6.74
2022-11-14T01:19:41.097Z,6.70
2022-11-14T01:22:08.548Z,6.63
2022-11-14T01:24:36.383Z,6.52
2022-11-14T01:27:03.792Z,6.55
2022-11-14T01:29:30.909Z,6.47
2022-11-14T01:32:08.231Z,6.48
2022-11-14T01:34:35.253Z,6.42
2022-11-14T01:37:02.306Z,6.34
2022-11-14T01:39:29.352Z,6.32
2022-11-14T01:41:56.653Z,6.25
2022-11-14T01:44:52.877Z,6.19
2022-11-14T01:47:30.437Z,6.13
2022-11-14T01:50:05.553Z,6.18
2022-11-14T01:52:49.588Z,6.21
2022-11-14T01:55:17.112Z,6.09
2022-11-14T01:58:06.879Z,6.06
2022-11-14T02:00:34.235Z,6.11
2022-11-14T02:03:01.800Z,6.10
2022-11-14T02:05:30.030Z,6.18
2022-11-14T02:07:57.919Z,6.21
2022-11-14T02:10:25.359Z,6.25
2022-11-14T02:12:55.119Z,6.24
2022-11-14T02:15:28.043Z,6.27
2022-11-14T02:17:55.430Z,6.27
2022-11-14T02:20:32.890Z,6.31
2022-11-14T02:23:00.094Z,6.36
2022-11-14T02:25:32.734Z,6.35
2022-11-14T02:28:01.167Z,6.44
2022-11-14T02:30:28.430Z,6.38
2022-11-14T02:33:11.817Z,6.41
2022-11-14T02:35:39.320Z,6.42
2022-11-14T02:38:07.014Z,6.43
2022-11-14T02:40:37.691Z,6.37
2022-11-14T02:43:05.426Z,6.43
2022-11-14T02:45:32.582Z,6.35
2022-11-14T02:48:02.164Z,6.43
2022-11-14T02:50:51.403Z,6.43
2022-11-14T02:53:30.972Z,6.36
2022-11-14T02:55:58.148Z,6.40
2022-11-14T02:58:31.164Z,6.39
2022-11-14T03:01:20.345Z,6.43
2022-11-14T03:03:55.216Z,6.39
2022-11-14T03:06:22.590Z,6.24
2022-11-14T03:08:49.913Z,6.14
2022-11-14T03:11:25.533Z,6.06
2022-11-14T03:13:55.928Z,6.05
2022-11-14T03:16:32.011Z,6.08
2022-11-14T03:18:59.277Z,6.02
2022-11-14T03:21:27.039Z,5.99
2022-11-14T03:24:14.823Z,5.95
2022-11-14T03:26:47.600Z,6.08
2022-11-14T03:29:14.724Z,5.95
2022-11-14T03:31:41.931Z,6.00
2022-11-14T03:34:10.863Z,6.01
2022-11-14T03:36:41.194Z,5.92
2022-11-14T03:39:09.241Z,5.92
2022-11-14T03:41:36.350Z,5.98
2022-11-14T03:44:03.826Z,6.02
2022-11-14T03:46:30.839Z,6.07
2022-11-14T03:49:02.457Z,6.00
2022-11-14T03:51:29.913Z,5.96
2022-11-14T03:53:56.991Z,5.92
2022-11-14T03:56:24.315Z,5.87
2022-11-14T03:58:51.653Z,5.93
2022-11-14T04:01:21.639Z,5.90
2022-11-14T04:03:48.928Z,5.92
2022-11-14T04:06:17.993Z,5.91
2022-11-14T04:08:45.216Z,5.94
2022-11-14T04:11:15.173Z,5.93
2022-11-14T04:13:42.571Z,5.93
2022-11-14T04:16:09.605Z,5.88
2022-11-14T04:18:36.625Z,5.81
2022-11-14T04:21:04.430Z,5.74
2022-11-14T04:23:31.489Z,5.77
2022-11-14T04:25:58.519Z,5.86
2022-11-14T04:28:25.889Z,5.91
2022-11-14T04:30:54.025Z,5.96
2022-11-14T04:33:21.053Z,5.78
2022-11-14T04:35:48.719Z,5.75
2022-11-14T04:38:15.708Z,5.64
2022-11-14T04:40:53.612Z,5.55
2022-11-14T04:43:21.716Z,5.54
2022-11-14T04:45:48.775Z,5.42
2022-11-14T04:48:15.902Z,5.44
2022-11-14T04:50:42.936Z,5.36
2022-11-14T04:53:10.050Z,5.37
2022-11-14T04:55:37.087Z,5.38
2022-11-14T04:58:04.154Z,5.46
2022-11-14T05:00:32.450Z,5.55
2022-11-14T05:03:00.190Z,5.59
2022-11-14T05:05:27.607Z,5.74
2022-11-14T05:07:55.347Z,5.72
2022-11-14T05:10:25.320Z,5.71
2022-11-14T05:12:58.450Z,5.67
2022-11-14T05:15:26.174Z,5.71
2022-11-14T05:17:56.044Z,5.60
2022-11-14T05:20:23.357Z,5.72
2022-11-14T05:22:58.377Z,5.69
2022-11-14T05:25:29.119Z,5.79
2022-11-14T05:28:01.922Z,5.92
2022-11-14T05:30:28.888Z,5.91
2022-11-14T05:32:58.363Z,5.98
2022-11-14T05:35:25.468Z,6.04
2022-11-14T05:37:58.791Z,5.98
2022-11-14T05:40:37.750Z,6.03
2022-11-14T05:43:23.896Z,6.11
2022-11-14T05:45:51.646Z,6.20
2022-11-14T05:48:18.928Z,6.00
2022-11-14T05:50:46.144Z,5.95
2022-11-14T05:53:13.419Z,6.08
2022-11-14T05:55:45.026Z,6.05
2022-11-14T05:58:12.562Z,5.96
2022-11-14T06:00:46.577Z,5.99
2022-11-14T06:03:18.237Z,6.10
2022-11-14T06:05:45.376Z,6.20
2022-11-14T06:08:13.616Z,6.10
2022-11-14T06:10:44.493Z,6.17
2022-11-14T06:13:11.494Z,6.26
2022-11-14T06:15:38.760Z,6.22
2022-11-14T06:18:06.050Z,6.15
2022-11-14T06:20:33.145Z,5.97
2022-11-14T06:23:03.161Z,5.93
2022-11-14T06:25:30.462Z,6.22
2022-11-14T06:27:59.581Z,6.08
2022-11-14T06:30:27.257Z,6.02
2022-11-14T06:33:08.693Z,6.14
2022-11-14T06:35:37.097Z,6.07
2022-11-14T06:38:52.268Z,6.02
2022-11-14T06:41:22.756Z,6.03
2022-11-14T06:43:54.135Z,5.98
2022-11-14T06:46:24.259Z,5.93
2022-11-14T06:48:52.592Z,5.96
2022-11-14T06:51:22.511Z,6.00
2022-11-14T06:53:49.520Z,6.08
2022-11-14T06:56:20.639Z,6.08
2022-11-14T06:58:50.206Z,6.04
2022-11-14T07:01:26.019Z,6.13
2022-11-14T07:04:05.454Z,6.24
2022-11-14T07:06:40.203Z,6.19
2022-11-14T07:09:07.304Z,6.03
2022-11-14T07:11:38.613Z,5.95
2022-11-14T07:14:06.800Z,5.90
2022-11-14T07:16:35.830Z,5.98
2022-11-14T07:19:09.050Z,5.94
2022-11-14T07:21:37.542Z,6.11
2022-11-14T07:24:08.161Z,6.10
2022-11-14T07:26:35.276Z,6.18
2022-11-14T07:29:03.448Z,6.03
2022-11-14T07:31:35.027Z,6.03
2022-11-14T07:34:02.168Z,6.08
2022-11-14T07:36:29.254Z,6.07
2022-11-14T07:38:56.480Z,6.21
2022-11-14T07:41:26.434Z,6.07
2022-11-14T07:43:53.845Z,6.18
2022-11-14T07:46:29.271Z,6.14
2022-11-14T07:48:56.233Z,6.25
2022-11-14T07:51:23.272Z,6.27
2022-11-14T07:53:55.736Z,6.41
2022-11-14T07:56:25.849Z,6.41
2022-11-14T07:58:52.884Z,6.26
2022-11-14T08:01:20.050Z,6.27
2022-11-14T08:03:47.083Z,6.40
2022-11-14T08:06:18.825Z,6.37
2022-11-14T08:08:48.597Z,6.52
2022-11-14T08:11:31.776Z,6.44
2022-11-14T08:14:02.218Z,6.37
2022-11-14T08:16:29.262Z,6.59
2022-11-14T08:18:56.245Z,6.55
2022-11-14T08:21:23.535Z,6.77
2022-11-14T08:23:50.621Z,6.72
2022-11-14T08:26:17.745Z,6.87
2022-11-14T08:28:45.953Z,6.69
2022-11-14T08:31:13.682Z,6.77
2022-11-14T08:33:40.843Z,6.78
2022-11-14T08:36:08.440Z,6.58
2022-11-14T08:38:35.842Z,6.41
2022-11-14T08:41:04.062Z,6.18
2022-11-14T08:43:34.083Z,6.20
2022-11-14T08:46:04.528Z,6.24
2022-11-14T08:48:33.569Z,6.52
2022-11-14T08:51:07.745Z,6.46
2022-11-14T08:53:35.457Z,6.70
2022-11-14T08:56:03.038Z,6.90
2022-11-14T08:58:32.630Z,6.94
2022-11-14T09:01:07.177Z,7.12
2022-11-14T09:03:34.949Z,6.93
2022-11-14T09:06:03.697Z,6.77
2022-11-14T09:08:33.977Z,6.84
2022-11-14T09:11:05.592Z,6.82
2022-11-14T09:13:35.162Z,6.91
2022-11-14T09:16:02.915Z,6.71
2022-11-14T09:18:31.876Z,6.91
2022-11-14T09:21:09.193Z,6.78
2022-11-14T09:23:36.862Z,7.04
2022-11-14T09:26:09.805Z,7.30
2022-11-14T09:28:37.796Z,7.49
2022-11-14T09:31:09.979Z,7.49
2022-11-14T09:33:40.376Z,7.28
2022-11-14T09:36:11.247Z,7.48
2022-11-14T09:38:38.933Z,7.11
2022-11-14T09:41:08.681Z,7.36
2022-11-14T09:44:39.004Z,7.45
2022-11-14T09:47:20.526Z,7.34
2022-11-14T09:49:54.848Z,7.30
2022-11-14T09:52:58.900Z,7.18
2022-11-14T09:55:37.218Z,7.60
2022-11-14T09:58:05.454Z,7.67
2022-11-14T10:00:56.798Z,7.67
2022-11-14T10:03:58.896Z,7.77
2022-11-14T10:06:30.483Z,8.00
2022-11-14T10:09:44.668Z,8.27
2022-11-14T10:12:23.695Z,7.99
2022-11-14T10:15:15.150Z,8.11
2022-11-14T10:18:33.369Z,8.02
2022-11-14T10:21:32.986Z,8.22
2022-11-14T10:24:45.993Z,8.18
2022-11-14T10:27:58.497Z,8.27
2022-11-14T10:31:10.114Z,8.44
2022-11-14T10:34:26.407Z,8.27
2022-11-14T10:37:33.281Z,8.30
2022-11-14T10:40:33.747Z,8.41
2022-11-14T10:43:35.361Z,8.47
2022-11-14T10:46:32.843Z,8.43
2022-11-14T10:49:13.871Z,8.72
2022-11-14T10:51:46.831Z,8.57
2022-11-14T10:54:32.960Z,8.66
2022-11-14T10:57:00.065Z,8.68
2022-11-14T10:59:29.611Z,8.83
2022-11-14T11:01:58.741Z,8.81
2022-11-14T11:04:43.669Z,8.82
2022-11-14T11:07:30.596Z,8.79
2022-11-14T11:10:21.069Z,8.91
2022-11-14T11:12:52.685Z,8.89
2022-11-14T11:15:26.312Z,8.79
2022-11-14T11:18:05.070Z,8.76
2022-11-14T11:20:38.501Z,9.08
2022-11-14T11:23:11.502Z,9.11
2022-11-14T11:25:40.518Z,9.26
2022-11-14T11:28:21.569Z,9.25
2022-11-14T11:31:07.639Z,9.13
2022-11-14T11:33:38.193Z,9.17
2022-11-14T11:36:18.157Z,9.36
2022-11-14T11:38:47.595Z,9.37
2022-11-14T11:42:07.685Z,9.27
2022-11-14T11:44:18.778Z,9.35
2022-11-14T11:47:01.120Z,9.20
2022-11-14T11:49:52.014Z,9.23
2022-11-14T11:53:19.554Z,9.33
2022-11-14T11:55:59.257Z,9.07
2022-11-14T11:58:49.820Z,9.10
2022-11-14T12:01:17.881Z,9.20
2022-11-14T12:03:54.197Z,9.36
2022-11-14T12:06:27.196Z,9.25
2022-11-14T12:10:03.510Z,9.58
2022-11-14T12:12:42.972Z,9.72
2022-11-14T12:15:51.406Z,9.98
2022-11-14T12:18:49.070Z,9.98
2022-11-14T12:21:46.844Z,9.89
2022-11-14T12:25:38.209Z,9.92
2022-11-14T12:28:40.561Z,9.92
2022-11-14T12:31:16.912Z,10.12
2022-11-14T12:34:04.066Z,10.20
2022-11-14T12:36:34.952Z,10.12
2022-11-14T12:39:03.280Z,10.55
2022-11-14T12:41:39.006Z,10.64
2022-11-14T12:44:26.928Z,10.95
2022-11-14T12:47:06.223Z,10.98
2022-11-14T12:49:48.289Z,11.00
2022-11-14T12:52:52.736Z,10.66
2022-11-14T12:55:31.607Z,10.93
2022-11-14T12:58:42.755Z,11.06
2022-11-14T13:01:31.936Z,11.06
2022-11-14T13:05:04.280Z,11.34
2022-11-14T13:08:31.186Z,11.35
2022-11-14T13:10:58.698Z,11.03
2022-11-14T13:13:44.703Z,11.24
2022-11-14T13:16:51.091Z,11.40
2022-11-14T13:19:40.788Z,11.14
2022-11-14T13:22:37.350Z,11.23
2022-11-14T13:25:20.759Z,11.05
2022-11-14T13:31:16.898Z,10.92
2022-11-14T13:34:38.889Z,10.85
2022-11-14T13:37:59.903Z,10.84
2022-11-14T13:40:44.468Z,10.75
2022-11-14T13:43:42.685Z,10.99
2022-11-14T13:47:07.475Z,10.66
2022-11-14T13:50:13.865Z,10.21
2022-11-14T13:52:48.915Z,10.43
2022-11-14T13:55:50.075Z,10.25
2022-11-14T13:59:03.228Z,10.13
2022-11-14T14:01:30.115Z,10.15
2022-11-14T14:04:49.270Z,10.06
2022-11-14T14:07:37.508Z,9.92
2022-11-14T14:10:41.568Z,9.83
2022-11-14T14:14:03.666Z,9.80
2022-11-14T14:16:49.958Z,9.84
2022-11-14T14:20:19.732Z,9.73
2022-11-14T14:23:11.053Z,9.62
2022-11-14T14:26:27.545Z,9.42
2022-11-14T14:29:58.188Z,9.43
2022-11-14T14:32:25.563Z,9.34
2022-11-14T14:34:56.939Z,9.25
2022-11-14T14:37:28.697Z,9.05
2022-11-14T14:40:22.359Z,8.90
2022-11-14T14:42:49.404Z,8.84
2022-11-14T14:45:24.057Z,8.68
2022-11-14T14:48:15.652Z,8.58
2022-11-14T14:50:58.715Z,8.37
2022-11-14T14:53:35.802Z,8.23
2022-11-14T14:56:16.997Z,8.20
2022-11-14T14:58:44.360Z,8.22
2022-11-14T15:01:23.313Z,8.18
2022-11-14T15:04:07.850Z,8.04
2022-11-14T15:06:39.268Z,7.82
2022-11-14T15:09:28.042Z,7.77
2022-11-14T15:11:59.018Z,7.49
2022-11-14T15:14:36.945Z,7.42
2022-11-14T15:17:05.055Z,7.36
2022-11-14T15:19:45.013Z,7.31
2022-11-14T15:22:14.605Z,7.35
2022-11-14T15:24:42.181Z,7.28
2022-11-14T15:27:19.981Z,7.23
2022-11-14T15:30:07.525Z,7.14
2022-11-14T15:33:34.211Z,6.97
2022-11-14T15:36:27.321Z,6.89
2022-11-14T15:39:29.389Z,6.88
2022-11-14T15:42:21.013Z,6.98
2022-11-14T15:44:54.569Z,7.19
2022-11-14T15:47:50.349Z,7.26
2022-11-14T15:50:37.579Z,7.13
2022-11-14T15:53:27.805Z,6.99
2022-11-14T15:55:54.985Z,7.01
2022-11-14T15:58:28.346Z,6.98
2022-11-14T16:00:56.632Z,6.93
2022-11-14T16:03:24.292Z,6.94
2022-11-14T16:05:51.253Z,6.98
2022-11-14T16:08:18.265Z,6.94
2022-11-14T16:10:45.533Z,6.99
2022-11-14T16:13:12.658Z,6.89
2022-11-14T16:15:39.779Z,6.82
2022-11-14T16:18:07.201Z,6.72
2022-11-14T16:20:37.899Z,6.82
2022-11-14T16:23:05.402Z,6.91
2022-11-14T16:25:33.013Z,6.93
2022-11-14T16:27:59.993Z,6.97
2022-11-14T16:30:28.403Z,6.83
2022-11-14T16:32:55.375Z,6.76
2022-11-14T16:35:26.690Z,6.88
2022-11-14T16:37:56.641Z,6.68
2022-11-14T16:40:27.757Z,6.75
2022-11-14T16:42:57.690Z,6.75
2022-11-14T16:45:26.613Z,6.59
2022-11-14T16:47:53.744Z,6.45
2022-11-14T16:50:20.838Z,6.71
2022-11-14T16:52:47.932Z,6.77
2022-11-14T16:55:15.060Z,6.95
2022-11-14T16:57:42.154Z,7.03
2022-11-14T17:00:14.556Z,7.12
2022-11-14T17:02:42.044Z,7.08
2022-11-14T17:05:09.718Z,7.08
2022-11-14T17:07:36.945Z,7.13
2022-11-14T17:10:06.198Z,7.11
2022-11-14T17:12:36.753Z,7.06
2022-11-14T17:15:04.147Z,7.25
2022-11-14T17:17:31.496Z,7.23
2022-11-14T17:19:58.662Z,7.19
2022-11-14T17:22:25.702Z,7.23
2022-11-14T17:24:52.657Z,7.35
2022-11-14T17:27:19.898Z,7.24
2022-11-14T17:29:46.917Z,7.19
2022-11-14T17:32:13.891Z,7.15
2022-11-14T17:34:40.927Z,7.12
2022-11-14T17:37:07.955Z,6.99
2022-11-14T17:39:35.097Z,7.08
2022-11-14T17:42:02.140Z,6.90
2022-11-14T17:44:29.104Z,6.93
2022-11-14T17:46:56.076Z,6.96
2022-11-14T17:49:23.060Z,7.01
2022-11-14T17:51:50.112Z,7.02
2022-11-14T17:54:17.090Z,7.02
2022-11-14T17:56:48.517Z,7.01
2022-11-14T17:59:16.879Z,7.12
2022-11-14T18:01:43.953Z,7.13
2022-11-14T18:04:12.017Z,7.16
2022-11-14T18:06:38.967Z,7.07
2022-11-14T18:09:08.125Z,6.96
2022-11-14T18:11:38.410Z,6.89
2022-11-14T18:14:05.416Z,6.75
2022-11-14T18:16:57.451Z,6.78
2022-11-14T18:19:19.388Z,6.75
2022-11-14T18:21:52.043Z,6.64
2022-11-14T18:24:21.519Z,6.65
2022-11-14T18:26:48.501Z,6.71
2022-11-14T18:29:15.717Z,6.69
2022-11-14T18:31:42.726Z,6.63
2022-11-14T18:34:09.732Z,6.70
2022-11-14T18:36:37.065Z,6.71
2022-11-14T18:39:04.231Z,6.64
2022-11-14T18:41:31.290Z,6.54
2022-11-14T18:43:58.370Z,6.42
2022-11-14T18:46:26.579Z,6.06
2022-11-14T18:48:57.183Z,6.13
2022-11-14T18:51:29.793Z,6.00
2022-11-14T18:53:59.269Z,6.20
2022-11-14T18:56:26.944Z,6.14
2022-11-14T18:58:56.417Z,6.02
2022-11-14T19:01:29.277Z,5.82
2022-11-14T19:04:00.687Z,5.79
2022-11-14T19:06:29.602Z,5.70
2022-11-14T19:09:11.081Z,5.65
2022-11-14T19:11:57.613Z,5.77
2022-11-14T19:14:24.706Z,5.71
2022-11-14T19:16:51.679Z,5.68
2022-11-14T19:19:18.666Z,5.62
2022-11-14T19:21:50.379Z,5.82
2022-11-14T19:24:18.228Z,5.58
2022-11-14T19:26:45.609Z,5.67
2022-11-14T19:29:15.515Z,5.40
2022-11-14T19:31:43.366Z,5.23
2022-11-14T19:34:11.202Z,5.42
2022-11-14T19:36:58.695Z,5.41
2022-11-14T19:39:25.548Z,5.54
2022-11-14T19:41:52.591Z,5.57
2022-11-14T19:44:19.791Z,5.44
2022-11-14T19:46:48.055Z,5.29
2022-11-14T19:49:15.736Z,5.42
2022-11-14T19:51:43.004Z,5.15
2022-11-14T19:54:11.194Z,5.12
2022-11-14T19:56:38.321Z,4.94
2022-11-14T19:59:09.646Z,5.15
2022-11-14T20:01:41.993Z,4.97
2022-11-14T20:04:13.063Z,4.85
2022-11-14T20:06:41.551Z,4.91
2022-11-14T20:09:11.050Z,4.91
2022-11-14T20:11:38.485Z,4.90
2022-11-14T20:14:06.123Z,5.02
2022-11-14T20:16:36.566Z,4.87
2022-11-14T20:19:04.751Z,4.80
2022-11-14T20:21:34.346Z,4.79
2022-11-14T20:24:01.761Z,4.75
2022-11-14T20:26:28.839Z,4.65
2022-11-14T20:28:55.879Z,4.63
2022-11-14T20:31:28.085Z,4.74
2022-11-14T20:33:56.644Z,4.65
2022-11-14T20:36:31.936Z,4.56
2022-11-14T20:39:02.396Z,4.61
2022-11-14T20:41:29.451Z,4.46
2022-11-14T20:43:56.499Z,4.54
2022-11-14T20:46:23.551Z,4.74
2022-11-14T20:48:50.670Z,4.85
2022-11-14T20:51:24.743Z,4.86
2022-11-14T20:53:55.118Z,4.93
2022-11-14T20:56:23.308Z,4.66
2022-11-14T20:58:54.121Z,4.81
2022-11-14T21:01:21.474Z,4.59
2022-11-14T21:03:49.121Z,4.76
2022-11-14T21:06:17.001Z,4.99
2022-11-14T21:08:44.533Z,5.12
2022-11-14T21:11:17.999Z,5.01
2022-11-14T21:13:57.260Z,4.98
2022-11-14T21:16:38.597Z,4.63
2022-11-14T21:19:07.237Z,4.84
2022-11-14T21:21:37.382Z,4.92
2022-11-14T21:24:05.322Z,4.80
2022-11-14T21:26:38.123Z,4.46
2022-11-14T21:29:12.433Z,4.51
2022-11-14T21:31:45.841Z,4.59
2022-11-14T21:34:16.698Z,4.37
2022-11-14T21:36:46.107Z,4.26
2022-11-14T21:39:16.342Z,4.13
2022-11-14T21:41:45.596Z,4.10
2022-11-14T21:44:16.382Z,4.43
2022-11-14T21:46:47.024Z,4.39
2022-11-14T21:49:14.316Z,4.18
2022-11-14T21:51:41.432Z,3.92
2022-11-14T21:54:10.080Z,3.77
2022-11-14T21:56:37.550Z,3.78
2022-11-14T21:59:16.382Z,3.78
2022-11-14T22:02:07.713Z,3.82
2022-11-14T22:04:36.420Z,3.69
2022-11-14T22:07:07.107Z,3.68
2022-11-14T22:09:36.360Z,3.68
2022-11-14T22:12:07.543Z,3.84
2022-11-14T22:14:34.531Z,3.77
2022-11-14T22:17:01.503Z,3.67
2022-11-14T22:19:28.491Z,3.68
2022-11-14T22:21:55.551Z,3.71
2022-11-14T22:24:23.624Z,3.78
2022-11-14T22:26:50.628Z,3.76
2022-11-14T22:29:18.136Z,3.74
2022-11-14T22:31:45.178Z,3.59
2022-11-14T22:34:12.466Z,3.56
2022-11-14T22:36:39.488Z,3.53
2022-11-14T22:39:06.516Z,3.60
2022-11-14T22:41:33.946Z,3.45
2022-11-14T22:44:01.941Z,3.46
2022-11-14T22:46:29.749Z,3.45
2022-11-14T22:48:58.118Z,3.42
2022-11-14T22:51:28.049Z,3.37
2022-11-14T22:53:57.988Z,3.42
2022-11-14T22:56:29.318Z,3.45
2022-11-14T22:58:59.134Z,3.52
2022-11-14T23:01:32.556Z,3.52
2022-11-14T23:04:04.074Z,3.59
2022-11-14T23:06:33.995Z,3.64
2022-11-14T23:09:02.929Z,3.60
2022-11-14T23:11:33.146Z,3.47
2022-11-14T23:14:01.715Z,3.33
2022-11-14T23:16:33.477Z,3.24
2022-11-14T23:19:03.988Z,3.32
2022-11-14T23:21:35.880Z,3.50
2022-11-14T23:24:11.321Z,3.28
2022-11-14T23:26:38.280Z,3.56
2022-11-14T23:29:05.297Z,3.62
2022-11-14T23:31:32.323Z,3.66
2022-11-14T23:33:59.287Z,3.67
2022-11-14T23:36:26.299Z,3.74
2022-11-14T23:38:53.936Z,3.49
2022-11-14T23:41:27.279Z,3.63
2022-11-14T23:43:54.228Z,3.64
2022-11-14T23:46:21.526Z,3.59
2022-11-14T23:48:48.742Z,3.53
2022-11-14T23:51:15.842Z,3.50
2022-11-14T23:53:43.179Z,3.49
2022-11-14T23:56:13.615Z,3.26
2022-11-14T23:58:41.577Z,3.28
